AAL1623 KDFW-KDCA
Flight info
| Callsign | AAL1623 |
|---|---|
| Flight time | 2h 19m |
| Altitude | 37000 |
| Route | TRYTN4 LOOSE Q34 SITTR TRUPS5 |
| Aircraft | B738/M-SDE2E3FGHIRWXY/LB1 |
Departure
| Time | 2026-05-05 13:36 |
|---|---|
| Airport | Dallas Fort Worth International Airport (KDFW) |
Arrival
| Time | 2026-05-05 15:55 |
|---|---|
| Airport | Ronald Reagan Washington National Airport (KDCA) |
| Time | Latitude | Longitude | Altitude | Speed | Heading |
|---|---|---|---|---|---|
| 2026-05-05 13:04 | 32.89961 | -97.03584 | 586 ft | 0 kts | 242° |
| 2026-05-05 13:25 | 32.89962 | -97.03582 | 567 ft | 2 kts | 242° |
| 2026-05-05 13:25 | 32.89974 | -97.03556 | 586 ft | 2 kts | 242° |
| 2026-05-05 13:25 | 32.89983 | -97.03533 | 586 ft | 4 kts | 270° |
| 2026-05-05 13:26 | 32.89974 | -97.03512 | 586 ft | 3 kts | 322° |
| 2026-05-05 13:26 | 32.89957 | -97.03495 | 586 ft | 1 kts | 322° |
| 2026-05-05 13:26 | 32.89956 | -97.03495 | 586 ft | 0 kts | 322° |
| 2026-05-05 13:27 | 32.89957 | -97.03495 | 586 ft | 0 kts | 322° |
| 2026-05-05 13:28 | 32.89957 | -97.03496 | 586 ft | 1 kts | 322° |
| 2026-05-05 13:29 | 32.89965 | -97.03503 | 586 ft | 3 kts | 322° |
| 2026-05-05 13:29 | 32.89988 | -97.03525 | 586 ft | 6 kts | 322° |
| 2026-05-05 13:29 | 32.90025 | -97.03557 | 586 ft | 7 kts | 326° |
| 2026-05-05 13:29 | 32.90072 | -97.03564 | 586 ft | 8 kts | 20° |
| 2026-05-05 13:30 | 32.90090 | -97.03516 | 586 ft | 7 kts | 90° |
| 2026-05-05 13:30 | 32.90090 | -97.03460 | 586 ft | 7 kts | 91° |
| 2026-05-05 13:30 | 32.90089 | -97.03384 | 585 ft | 11 kts | 90° |
| 2026-05-05 13:30 | 32.90108 | -97.03317 | 584 ft | 9 kts | 22° |
| 2026-05-05 13:31 | 32.90172 | -97.03313 | 584 ft | 10 kts | 0° |
| 2026-05-05 13:31 | 32.90240 | -97.03313 | 584 ft | 12 kts | 0° |
| 2026-05-05 13:31 | 32.90343 | -97.03312 | 584 ft | 18 kts | 0° |
| 2026-05-05 13:31 | 32.90487 | -97.03311 | 584 ft | 21 kts | 0° |
| 2026-05-05 13:32 | 32.90634 | -97.03310 | 584 ft | 21 kts | 0° |
| 2026-05-05 13:32 | 32.90777 | -97.03310 | 584 ft | 20 kts | 0° |
| 2026-05-05 13:32 | 32.90892 | -97.03309 | 584 ft | 20 kts | 0° |
| 2026-05-05 13:32 | 32.91011 | -97.03294 | 580 ft | 15 kts | 30° |
| 2026-05-05 13:33 | 32.91109 | -97.03273 | 579 ft | 14 kts | 0° |
| 2026-05-05 13:33 | 32.91208 | -97.03272 | 580 ft | 14 kts | 0° |
| 2026-05-05 13:33 | 32.91305 | -97.03272 | 580 ft | 15 kts | 0° |
| 2026-05-05 13:33 | 32.91416 | -97.03271 | 577 ft | 18 kts | 0° |
| 2026-05-05 13:34 | 32.91486 | -97.03246 | 577 ft | 9 kts | 64° |
| 2026-05-05 13:34 | 32.91486 | -97.03168 | 575 ft | 9 kts | 91° |
| 2026-05-05 13:34 | 32.91485 | -97.03088 | 576 ft | 10 kts | 90° |
| 2026-05-05 13:34 | 32.91482 | -97.03012 | 577 ft | 7 kts | 107° |
| 2026-05-05 13:35 | 32.91445 | -97.02989 | 580 ft | 6 kts | 176° |
| 2026-05-05 13:35 | 32.91387 | -97.02989 | 582 ft | 22 kts | 180° |
| 2026-05-05 13:35 | 32.91176 | -97.02990 | 578 ft | 69 kts | 180° |
| 2026-05-05 13:35 | 32.90475 | -97.02995 | 573 ft | 131 kts | 180° |
| 2026-05-05 13:36 | 32.89417 | -97.02985 | 807 ft | 160 kts | 180° |
| 2026-05-05 13:36 | 32.88325 | -97.02947 | 1563 ft | 160 kts | 182° |
| 2026-05-05 13:36 | 32.87188 | -97.02918 | 2256 ft | 170 kts | 187° |
| 2026-05-05 13:36 | 32.85904 | -97.02899 | 2499 ft | 197 kts | 187° |
| 2026-05-05 13:37 | 32.84451 | -97.02592 | 2725 ft | 230 kts | 168° |
| 2026-05-05 13:37 | 32.82902 | -97.01809 | 2956 ft | 255 kts | 165° |
| 2026-05-05 13:37 | 32.80646 | -97.00674 | 3690 ft | 272 kts | 165° |
| 2026-05-05 13:37 | 32.79454 | -97.00066 | 4200 ft | 280 kts | 160° |
| 2026-05-05 13:38 | 32.77885 | -96.98536 | 4728 ft | 306 kts | 127° |
| 2026-05-05 13:38 | 32.77070 | -96.96231 | 5615 ft | 305 kts | 109° |
| 2026-05-05 13:38 | 32.76491 | -96.93801 | 6405 ft | 309 kts | 98° |
| 2026-05-05 13:38 | 32.76481 | -96.91234 | 7145 ft | 312 kts | 86° |
| 2026-05-05 13:39 | 32.76618 | -96.88652 | 7900 ft | 316 kts | 85° |
| 2026-05-05 13:39 | 32.76752 | -96.86019 | 8579 ft | 322 kts | 86° |
| 2026-05-05 13:39 | 32.76876 | -96.83353 | 9343 ft | 325 kts | 84° |
| 2026-05-05 13:39 | 32.77353 | -96.80723 | 10063 ft | 327 kts | 71° |
| 2026-05-05 13:40 | 32.78051 | -96.78101 | 10504 ft | 342 kts | 70° |
| 2026-05-05 13:40 | 32.78821 | -96.75321 | 10736 ft | 362 kts | 70° |
| 2026-05-05 13:40 | 32.79602 | -96.72472 | 11271 ft | 370 kts | 70° |
| 2026-05-05 13:40 | 32.80390 | -96.69537 | 11951 ft | 374 kts | 70° |
| 2026-05-05 13:41 | 32.81172 | -96.66578 | 12642 ft | 378 kts | 70° |
| 2026-05-05 13:41 | 32.81960 | -96.63557 | 13287 ft | 383 kts | 70° |
| 2026-05-05 13:41 | 32.82753 | -96.60497 | 13887 ft | 389 kts | 70° |
| 2026-05-05 13:41 | 32.83541 | -96.57444 | 14477 ft | 393 kts | 70° |
| 2026-05-05 13:42 | 32.84344 | -96.54323 | 15099 ft | 397 kts | 70° |
| 2026-05-05 13:42 | 32.85155 | -96.51168 | 15675 ft | 402 kts | 70° |
| 2026-05-05 13:42 | 32.85977 | -96.47967 | 16247 ft | 407 kts | 70° |
| 2026-05-05 13:42 | 32.86808 | -96.44726 | 16843 ft | 410 kts | 70° |
| 2026-05-05 13:43 | 32.87642 | -96.41470 | 17474 ft | 413 kts | 70° |
| 2026-05-05 13:43 | 32.88483 | -96.38184 | 18059 ft | 418 kts | 70° |
| 2026-05-05 13:43 | 32.89335 | -96.34857 | 18536 ft | 422 kts | 70° |
| 2026-05-05 13:43 | 32.90233 | -96.31520 | 19018 ft | 426 kts | 66° |
| 2026-05-05 13:44 | 32.91270 | -96.28207 | 19508 ft | 429 kts | 65° |
| 2026-05-05 13:44 | 32.92376 | -96.24881 | 19993 ft | 433 kts | 64° |
| 2026-05-05 13:44 | 32.93503 | -96.21532 | 20470 ft | 438 kts | 64° |
| 2026-05-05 13:44 | 32.94634 | -96.18144 | 20957 ft | 442 kts | 64° |
| 2026-05-05 13:45 | 32.95761 | -96.14725 | 21419 ft | 446 kts | 64° |
| 2026-05-05 13:45 | 32.96876 | -96.11305 | 21861 ft | 451 kts | 64° |
| 2026-05-05 13:45 | 32.98009 | -96.07806 | 22346 ft | 454 kts | 65° |
| 2026-05-05 13:45 | 32.99133 | -96.04311 | 23101 ft | 449 kts | 65° |
| 2026-05-05 13:46 | 33.00258 | -96.00813 | 23493 ft | 455 kts | 65° |
| 2026-05-05 13:46 | 33.01397 | -95.97277 | 23758 ft | 461 kts | 65° |
| 2026-05-05 13:46 | 33.02551 | -95.93688 | 24141 ft | 464 kts | 65° |
| 2026-05-05 13:46 | 33.03708 | -95.90083 | 24565 ft | 466 kts | 65° |
| 2026-05-05 13:47 | 33.04869 | -95.86465 | 24952 ft | 470 kts | 65° |
| 2026-05-05 13:47 | 33.06042 | -95.82809 | 25268 ft | 474 kts | 65° |
| 2026-05-05 13:47 | 33.07229 | -95.79114 | 25589 ft | 478 kts | 65° |
| 2026-05-05 13:47 | 33.08423 | -95.75399 | 25933 ft | 482 kts | 64° |
| 2026-05-05 13:48 | 33.09623 | -95.71661 | 26262 ft | 485 kts | 64° |
| 2026-05-05 13:48 | 33.10821 | -95.67924 | 26627 ft | 488 kts | 64° |
| 2026-05-05 13:48 | 33.12034 | -95.64135 | 26996 ft | 490 kts | 64° |
| 2026-05-05 13:48 | 33.13251 | -95.60326 | 27332 ft | 492 kts | 64° |
| 2026-05-05 13:49 | 33.14476 | -95.56487 | 27552 ft | 496 kts | 64° |
| 2026-05-05 13:49 | 33.15708 | -95.52624 | 27786 ft | 500 kts | 64° |
| 2026-05-05 13:49 | 33.16947 | -95.48732 | 28024 ft | 502 kts | 63° |
| 2026-05-05 13:49 | 33.18190 | -95.44821 | 28272 ft | 505 kts | 63° |
| 2026-05-05 13:50 | 33.19435 | -95.40898 | 28515 ft | 507 kts | 63° |
| 2026-05-05 13:50 | 33.20674 | -95.36989 | 28726 ft | 510 kts | 63° |
| 2026-05-05 13:50 | 33.21933 | -95.33015 | 28970 ft | 513 kts | 63° |
| 2026-05-05 13:50 | 33.23193 | -95.29028 | 29255 ft | 513 kts | 63° |
| 2026-05-05 13:51 | 33.24455 | -95.25029 | 29540 ft | 515 kts | 63° |
| 2026-05-05 13:51 | 33.25721 | -95.21015 | 29756 ft | 518 kts | 63° |
| 2026-05-05 13:51 | 33.26993 | -95.16982 | 29934 ft | 521 kts | 63° |
| 2026-05-05 13:51 | 33.28271 | -95.12921 | 30114 ft | 523 kts | 63° |
| 2026-05-05 13:52 | 33.29552 | -95.08842 | 30327 ft | 525 kts | 63° |
| 2026-05-05 13:52 | 33.30837 | -95.04744 | 30525 ft | 526 kts | 63° |
| 2026-05-05 13:52 | 33.32128 | -95.00624 | 30705 ft | 528 kts | 63° |
| 2026-05-05 13:52 | 33.33402 | -94.96552 | 30877 ft | 530 kts | 63° |
| 2026-05-05 13:53 | 33.34696 | -94.92408 | 31082 ft | 531 kts | 63° |
| 2026-05-05 13:53 | 33.35993 | -94.88251 | 31313 ft | 532 kts | 63° |
| 2026-05-05 13:53 | 33.37288 | -94.84092 | 31489 ft | 533 kts | 63° |
| 2026-05-05 13:53 | 33.38587 | -94.79922 | 31619 ft | 536 kts | 63° |
| 2026-05-05 13:54 | 33.39872 | -94.75789 | 31756 ft | 538 kts | 63° |
| 2026-05-05 13:54 | 33.41177 | -94.71583 | 31955 ft | 539 kts | 63° |
| 2026-05-05 13:54 | 33.42478 | -94.67382 | 32204 ft | 538 kts | 63° |
| 2026-05-05 13:54 | 33.43778 | -94.63177 | 32455 ft | 538 kts | 63° |
| 2026-05-05 13:55 | 33.45076 | -94.58977 | 32665 ft | 538 kts | 63° |
| 2026-05-05 13:55 | 33.46375 | -94.54766 | 32876 ft | 538 kts | 63° |
| 2026-05-05 13:55 | 33.47669 | -94.50566 | 33168 ft | 537 kts | 63° |
| 2026-05-05 13:55 | 33.48959 | -94.46373 | 33427 ft | 536 kts | 63° |
| 2026-05-05 13:56 | 33.50251 | -94.42172 | 33620 ft | 537 kts | 63° |
| 2026-05-05 13:56 | 33.51541 | -94.37969 | 33797 ft | 538 kts | 63° |
| 2026-05-05 13:56 | 33.52833 | -94.33754 | 33990 ft | 538 kts | 63° |
| 2026-05-05 13:56 | 33.54108 | -94.29588 | 34208 ft | 538 kts | 63° |
| 2026-05-05 13:57 | 33.55392 | -94.25382 | 34436 ft | 537 kts | 63° |
| 2026-05-05 13:57 | 33.56664 | -94.21168 | 34616 ft | 538 kts | 63° |
| 2026-05-05 13:57 | 33.57926 | -94.16939 | 34828 ft | 538 kts | 63° |
| 2026-05-05 13:57 | 33.59175 | -94.12725 | 35085 ft | 536 kts | 63° |
| 2026-05-05 13:58 | 33.60420 | -94.08516 | 35307 ft | 535 kts | 63° |
| 2026-05-05 13:58 | 33.61664 | -94.04312 | 35480 ft | 536 kts | 63° |
| 2026-05-05 13:58 | 33.62913 | -94.00095 | 35629 ft | 537 kts | 63° |
| 2026-05-05 13:58 | 33.64168 | -93.95860 | 35785 ft | 538 kts | 63° |
| 2026-05-05 13:59 | 33.66657 | -93.87432 | 36251 ft | 537 kts | 63° |
| 2026-05-05 13:59 | 33.67901 | -93.83211 | 36439 ft | 537 kts | 63° |
| 2026-05-05 14:00 | 33.70390 | -93.74753 | 36808 ft | 537 kts | 63° |
| 2026-05-05 14:00 | 33.71217 | -93.71938 | 36824 ft | 539 kts | 63° |
| 2026-05-05 14:00 | 33.74117 | -93.62042 | 36819 ft | 537 kts | 63° |
| 2026-05-05 14:01 | 33.76587 | -93.53572 | 36806 ft | 534 kts | 63° |
| 2026-05-05 14:01 | 33.79038 | -93.45153 | 36813 ft | 532 kts | 63° |
| 2026-05-05 14:02 | 33.81429 | -93.36921 | 36813 ft | 530 kts | 63° |
| 2026-05-05 14:02 | 33.83855 | -93.28544 | 36828 ft | 530 kts | 63° |
| 2026-05-05 14:03 | 33.85999 | -93.21120 | 36834 ft | 531 kts | 63° |
| 2026-05-05 14:03 | 33.88422 | -93.12706 | 36846 ft | 532 kts | 63° |
| 2026-05-05 14:04 | 33.90977 | -93.04351 | 36838 ft | 529 kts | 58° |
| 2026-05-05 14:04 | 33.94043 | -92.96311 | 36850 ft | 529 kts | 55° |
| 2026-05-05 14:05 | 33.97149 | -92.88316 | 36854 ft | 532 kts | 56° |
| 2026-05-05 14:05 | 34.00188 | -92.80185 | 36831 ft | 534 kts | 57° |
| 2026-05-05 14:06 | 34.03203 | -92.71989 | 36829 ft | 534 kts | 57° |
| 2026-05-05 14:06 | 34.06228 | -92.63784 | 36846 ft | 533 kts | 56° |
| 2026-05-05 14:07 | 34.09267 | -92.55705 | 36818 ft | 531 kts | 56° |
| 2026-05-05 14:07 | 34.12310 | -92.47587 | 36820 ft | 529 kts | 56° |
| 2026-05-05 14:08 | 34.15311 | -92.39491 | 36834 ft | 527 kts | 56° |
| 2026-05-05 14:08 | 34.18296 | -92.31435 | 36847 ft | 524 kts | 56° |
| 2026-05-05 14:09 | 34.21265 | -92.23409 | 36869 ft | 523 kts | 56° |
| 2026-05-05 14:09 | 34.24226 | -92.15382 | 36867 ft | 522 kts | 56° |
| 2026-05-05 14:10 | 34.27164 | -92.07388 | 36865 ft | 520 kts | 56° |
| 2026-05-05 14:10 | 34.30075 | -91.99454 | 36873 ft | 519 kts | 56° |
| 2026-05-05 14:11 | 34.32997 | -91.91470 | 36873 ft | 519 kts | 56° |
| 2026-05-05 14:11 | 34.35918 | -91.83473 | 36857 ft | 519 kts | 56° |
| 2026-05-05 14:12 | 34.38837 | -91.75459 | 36859 ft | 520 kts | 56° |
| 2026-05-05 14:12 | 34.41762 | -91.67408 | 36861 ft | 521 kts | 56° |
| 2026-05-05 14:13 | 34.44658 | -91.59414 | 36860 ft | 522 kts | 56° |
| 2026-05-05 14:13 | 34.47574 | -91.51347 | 36950 ft | 523 kts | 56° |
| 2026-05-05 14:14 | 34.50500 | -91.43234 | 36898 ft | 525 kts | 56° |
| 2026-05-05 14:14 | 34.53421 | -91.35107 | 36888 ft | 526 kts | 56° |
| 2026-05-05 14:15 | 34.56199 | -91.27360 | 36879 ft | 526 kts | 56° |
| 2026-05-05 14:15 | 34.59110 | -91.19221 | 36877 ft | 526 kts | 56° |
| 2026-05-05 14:16 | 34.62001 | -91.11121 | 36874 ft | 525 kts | 56° |
| 2026-05-05 14:16 | 34.64900 | -91.02975 | 36869 ft | 525 kts | 56° |
| 2026-05-05 14:17 | 34.67791 | -90.94832 | 36868 ft | 524 kts | 56° |
| 2026-05-05 14:17 | 34.70670 | -90.86702 | 36882 ft | 523 kts | 56° |
| 2026-05-05 14:18 | 34.73541 | -90.78577 | 36932 ft | 522 kts | 56° |
| 2026-05-05 14:18 | 34.76374 | -90.70537 | 36889 ft | 523 kts | 56° |
| 2026-05-05 14:19 | 34.79238 | -90.62386 | 36889 ft | 522 kts | 56° |
| 2026-05-05 14:19 | 34.82058 | -90.54339 | 36891 ft | 521 kts | 56° |
| 2026-05-05 14:20 | 34.84896 | -90.46222 | 36892 ft | 520 kts | 56° |
| 2026-05-05 14:20 | 34.87724 | -90.38113 | 36906 ft | 519 kts | 56° |
| 2026-05-05 14:21 | 34.90543 | -90.30011 | 36903 ft | 519 kts | 56° |
| 2026-05-05 14:21 | 34.93356 | -90.21902 | 36900 ft | 519 kts | 56° |
| 2026-05-05 14:22 | 34.96145 | -90.13841 | 36904 ft | 519 kts | 56° |
| 2026-05-05 14:22 | 34.98940 | -90.05741 | 36905 ft | 519 kts | 56° |
| 2026-05-05 14:23 | 35.01563 | -89.98127 | 36961 ft | 520 kts | 56° |
| 2026-05-05 14:23 | 35.04131 | -89.90862 | 36938 ft | 519 kts | 54° |
| 2026-05-05 14:24 | 35.05852 | -89.86089 | 36942 ft | 519 kts | 54° |
| 2026-05-05 14:24 | 35.07546 | -89.81397 | 36925 ft | 519 kts | 55° |
| 2026-05-05 14:25 | 35.10409 | -89.73411 | 36914 ft | 519 kts | 55° |
| 2026-05-05 14:25 | 35.12806 | -89.66700 | 36919 ft | 518 kts | 55° |
| 2026-05-05 14:26 | 35.15676 | -89.58628 | 36924 ft | 518 kts | 55° |
| 2026-05-05 14:26 | 35.18542 | -89.50543 | 36944 ft | 518 kts | 55° |
| 2026-05-05 14:27 | 35.21397 | -89.42467 | 36944 ft | 517 kts | 55° |
| 2026-05-05 14:27 | 35.24249 | -89.34381 | 36937 ft | 517 kts | 55° |
| 2026-05-05 14:28 | 35.27094 | -89.26295 | 36946 ft | 518 kts | 55° |
| 2026-05-05 14:28 | 35.29933 | -89.18200 | 36942 ft | 517 kts | 55° |
| 2026-05-05 14:29 | 35.32765 | -89.10109 | 36926 ft | 516 kts | 55° |
| 2026-05-05 14:29 | 35.35583 | -89.02040 | 36931 ft | 515 kts | 55° |
| 2026-05-05 14:30 | 35.38375 | -88.94034 | 36939 ft | 514 kts | 55° |
| 2026-05-05 14:30 | 35.41181 | -88.85966 | 36942 ft | 513 kts | 55° |
| 2026-05-05 14:31 | 35.43973 | -88.77917 | 36951 ft | 513 kts | 55° |
| 2026-05-05 14:31 | 35.46761 | -88.69857 | 36940 ft | 513 kts | 55° |
| 2026-05-05 14:32 | 35.49540 | -88.61799 | 37000 ft | 512 kts | 55° |
| 2026-05-05 14:32 | 35.52301 | -88.53776 | 36954 ft | 513 kts | 56° |
| 2026-05-05 14:33 | 35.55069 | -88.45708 | 36977 ft | 513 kts | 55° |
| 2026-05-05 14:33 | 35.57840 | -88.37617 | 36962 ft | 513 kts | 55° |
| 2026-05-05 14:34 | 35.60598 | -88.29541 | 36975 ft | 512 kts | 55° |
| 2026-05-05 14:34 | 35.63346 | -88.21474 | 36976 ft | 511 kts | 55° |
| 2026-05-05 14:35 | 35.66087 | -88.13409 | 36989 ft | 510 kts | 55° |
| 2026-05-05 14:35 | 35.68801 | -88.05404 | 36962 ft | 510 kts | 55° |
| 2026-05-05 14:36 | 35.71526 | -87.97343 | 36959 ft | 511 kts | 56° |
| 2026-05-05 14:36 | 35.74248 | -87.89266 | 36989 ft | 511 kts | 56° |
| 2026-05-05 14:37 | 35.76976 | -87.81153 | 36967 ft | 512 kts | 56° |
| 2026-05-05 14:37 | 35.79693 | -87.73033 | 36968 ft | 513 kts | 56° |
| 2026-05-05 14:38 | 35.82396 | -87.64863 | 36969 ft | 514 kts | 56° |
| 2026-05-05 14:38 | 35.85087 | -87.56688 | 36960 ft | 515 kts | 56° |
| 2026-05-05 14:39 | 35.87760 | -87.48555 | 36958 ft | 516 kts | 56° |
| 2026-05-05 14:39 | 35.90452 | -87.40346 | 36961 ft | 516 kts | 56° |
| 2026-05-05 14:40 | 35.93136 | -87.32139 | 36960 ft | 516 kts | 56° |
| 2026-05-05 14:40 | 35.95813 | -87.23928 | 36955 ft | 514 kts | 56° |
| 2026-05-05 14:41 | 35.98471 | -87.15754 | 36957 ft | 512 kts | 56° |
| 2026-05-05 14:41 | 36.01115 | -87.07604 | 36957 ft | 509 kts | 56° |
| 2026-05-05 14:42 | 36.03718 | -86.99557 | 36956 ft | 507 kts | 56° |
| 2026-05-05 14:42 | 36.06338 | -86.91437 | 36970 ft | 504 kts | 56° |
| 2026-05-05 14:43 | 36.08913 | -86.83434 | 36960 ft | 503 kts | 56° |
| 2026-05-05 14:43 | 36.11490 | -86.75407 | 36987 ft | 501 kts | 56° |
| 2026-05-05 14:44 | 36.14058 | -86.67388 | 36989 ft | 500 kts | 56° |
| 2026-05-05 14:44 | 36.16647 | -86.59395 | 36996 ft | 500 kts | 56° |
| 2026-05-05 14:45 | 36.19251 | -86.51396 | 36997 ft | 501 kts | 56° |
| 2026-05-05 14:45 | 36.21844 | -86.43402 | 37005 ft | 504 kts | 56° |
| 2026-05-05 14:46 | 36.24452 | -86.35320 | 37005 ft | 506 kts | 56° |
| 2026-05-05 14:46 | 36.27059 | -86.27206 | 37011 ft | 507 kts | 56° |
| 2026-05-05 14:47 | 36.29309 | -86.20186 | 36982 ft | 508 kts | 56° |
| 2026-05-05 14:47 | 36.31664 | -86.12810 | 36981 ft | 509 kts | 56° |
| 2026-05-05 14:48 | 36.34005 | -86.05477 | 36981 ft | 510 kts | 56° |
| 2026-05-05 14:48 | 36.36611 | -85.97289 | 36994 ft | 510 kts | 56° |
| 2026-05-05 14:49 | 36.39215 | -85.89082 | 36958 ft | 510 kts | 56° |
| 2026-05-05 14:49 | 36.41804 | -85.80899 | 36964 ft | 509 kts | 56° |
| 2026-05-05 14:50 | 36.44384 | -85.72723 | 36976 ft | 508 kts | 56° |
| 2026-05-05 14:50 | 36.46956 | -85.64549 | 36974 ft | 507 kts | 56° |
| 2026-05-05 14:51 | 36.49499 | -85.56441 | 36973 ft | 506 kts | 56° |
| 2026-05-05 14:51 | 36.52048 | -85.48291 | 36976 ft | 504 kts | 57° |
| 2026-05-05 14:52 | 36.54584 | -85.40163 | 36976 ft | 503 kts | 56° |
| 2026-05-05 14:52 | 36.57108 | -85.32052 | 36969 ft | 502 kts | 56° |
| 2026-05-05 14:53 | 36.59620 | -85.23955 | 36966 ft | 501 kts | 56° |
| 2026-05-05 14:53 | 36.62109 | -85.15909 | 36990 ft | 499 kts | 56° |
| 2026-05-05 14:54 | 36.64595 | -85.07848 | 36991 ft | 499 kts | 56° |
| 2026-05-05 14:54 | 36.67078 | -84.99776 | 37009 ft | 499 kts | 56° |
| 2026-05-05 14:55 | 36.69552 | -84.91706 | 37014 ft | 498 kts | 57° |
| 2026-05-05 14:55 | 36.72018 | -84.83636 | 37023 ft | 498 kts | 57° |
| 2026-05-05 14:56 | 36.74476 | -84.75573 | 37009 ft | 498 kts | 57° |
| 2026-05-05 14:56 | 36.76908 | -84.67566 | 37016 ft | 496 kts | 57° |
| 2026-05-05 14:57 | 36.79348 | -84.59519 | 37017 ft | 495 kts | 57° |
| 2026-05-05 14:57 | 36.81781 | -84.51483 | 36987 ft | 494 kts | 57° |
| 2026-05-05 14:58 | 36.84082 | -84.43870 | 36980 ft | 494 kts | 57° |
| 2026-05-05 14:58 | 36.86503 | -84.35837 | 37039 ft | 494 kts | 57° |
| 2026-05-05 14:59 | 36.88903 | -84.27853 | 37048 ft | 495 kts | 57° |
| 2026-05-05 14:59 | 36.91328 | -84.19765 | 37028 ft | 497 kts | 57° |
| 2026-05-05 15:00 | 36.93337 | -84.13038 | 37025 ft | 498 kts | 57° |
| 2026-05-05 15:00 | 36.96172 | -84.03524 | 37004 ft | 500 kts | 57° |
| 2026-05-05 15:01 | 36.98459 | -83.95799 | 37009 ft | 501 kts | 58° |
| 2026-05-05 15:01 | 37.00851 | -83.87681 | 37017 ft | 501 kts | 58° |
| 2026-05-05 15:02 | 37.03261 | -83.79478 | 36990 ft | 501 kts | 58° |
| 2026-05-05 15:02 | 37.05661 | -83.71287 | 36990 ft | 500 kts | 58° |
| 2026-05-05 15:03 | 37.08044 | -83.63127 | 36991 ft | 499 kts | 58° |
| 2026-05-05 15:03 | 37.10421 | -83.54972 | 36984 ft | 498 kts | 58° |
| 2026-05-05 15:04 | 37.12785 | -83.46834 | 37001 ft | 496 kts | 58° |
| 2026-05-05 15:04 | 37.15138 | -83.38714 | 36994 ft | 496 kts | 58° |
| 2026-05-05 15:05 | 37.18655 | -83.26528 | 37004 ft | 494 kts | 59° |
| 2026-05-05 15:06 | 37.20984 | -83.18426 | 36994 ft | 493 kts | 58° |
| 2026-05-05 15:06 | 37.23303 | -83.10338 | 37005 ft | 491 kts | 59° |
| 2026-05-05 15:07 | 37.25592 | -83.02329 | 36998 ft | 489 kts | 59° |
| 2026-05-05 15:07 | 37.27835 | -82.94462 | 37034 ft | 486 kts | 59° |
| 2026-05-05 15:08 | 37.29936 | -82.87078 | 37013 ft | 486 kts | 59° |
| 2026-05-05 15:08 | 37.32209 | -82.79074 | 37008 ft | 487 kts | 59° |
| 2026-05-05 15:09 | 37.34468 | -82.71094 | 37012 ft | 487 kts | 60° |
| 2026-05-05 15:09 | 37.36733 | -82.63055 | 37004 ft | 486 kts | 60° |
| 2026-05-05 15:10 | 37.38987 | -82.55037 | 37040 ft | 485 kts | 60° |
| 2026-05-05 15:10 | 37.41235 | -82.47021 | 37002 ft | 487 kts | 60° |
| 2026-05-05 15:11 | 37.43489 | -82.38959 | 37007 ft | 488 kts | 60° |
| 2026-05-05 15:11 | 37.45689 | -82.31054 | 37013 ft | 487 kts | 60° |
| 2026-05-05 15:12 | 37.47554 | -82.24343 | 36998 ft | 488 kts | 60° |
| 2026-05-05 15:12 | 37.49793 | -82.16260 | 36982 ft | 487 kts | 60° |
| 2026-05-05 15:13 | 37.52398 | -82.06848 | 36992 ft | 487 kts | 60° |
| 2026-05-05 15:13 | 37.54251 | -82.00151 | 37000 ft | 487 kts | 61° |
| 2026-05-05 15:14 | 37.56468 | -81.92106 | 37015 ft | 484 kts | 60° |
| 2026-05-05 15:14 | 37.58680 | -81.84065 | 37006 ft | 486 kts | 60° |
| 2026-05-05 15:15 | 37.60889 | -81.75992 | 36997 ft | 488 kts | 61° |
| 2026-05-05 15:15 | 37.63070 | -81.67957 | 37001 ft | 487 kts | 61° |
| 2026-05-05 15:16 | 37.65258 | -81.59870 | 37006 ft | 487 kts | 61° |
| 2026-05-05 15:16 | 37.67449 | -81.51754 | 37007 ft | 488 kts | 62° |
| 2026-05-05 15:17 | 37.69635 | -81.43628 | 37016 ft | 488 kts | 62° |
| 2026-05-05 15:17 | 37.71768 | -81.35673 | 37041 ft | 487 kts | 62° |
| 2026-05-05 15:18 | 37.73934 | -81.27574 | 37051 ft | 485 kts | 62° |
| 2026-05-05 15:18 | 37.76075 | -81.19545 | 37066 ft | 484 kts | 62° |
| 2026-05-05 15:19 | 37.78234 | -81.11510 | 37067 ft | 480 kts | 59° |
| 2026-05-05 15:19 | 37.80878 | -81.03856 | 37075 ft | 472 kts | 54° |
| 2026-05-05 15:20 | 37.83662 | -80.96342 | 37061 ft | 473 kts | 55° |
| 2026-05-05 15:20 | 37.86380 | -80.88743 | 37049 ft | 474 kts | 57° |
| 2026-05-05 15:21 | 37.89048 | -80.81182 | 37026 ft | 472 kts | 56° |
| 2026-05-05 15:21 | 37.91743 | -80.73611 | 37026 ft | 470 kts | 56° |
| 2026-05-05 15:22 | 37.94431 | -80.66059 | 37006 ft | 470 kts | 56° |
| 2026-05-05 15:22 | 37.97111 | -80.58501 | 37017 ft | 469 kts | 56° |
| 2026-05-05 15:23 | 37.99763 | -80.50996 | 37010 ft | 468 kts | 57° |
| 2026-05-05 15:23 | 38.02417 | -80.43465 | 37022 ft | 468 kts | 57° |
| 2026-05-05 15:24 | 38.05071 | -80.35915 | 37013 ft | 468 kts | 57° |
| 2026-05-05 15:24 | 38.07724 | -80.28353 | 37028 ft | 469 kts | 57° |
| 2026-05-05 15:25 | 38.10390 | -80.20776 | 37022 ft | 469 kts | 57° |
| 2026-05-05 15:25 | 38.13075 | -80.13240 | 36995 ft | 469 kts | 58° |
| 2026-05-05 15:25 | 38.14406 | -80.09500 | 36703 ft | 469 kts | 58° |
| 2026-05-05 15:26 | 38.15734 | -80.05752 | 36452 ft | 463 kts | 58° |
| 2026-05-05 15:26 | 38.17045 | -80.02039 | 36186 ft | 457 kts | 58° |
| 2026-05-05 15:26 | 38.18339 | -79.98372 | 35936 ft | 453 kts | 58° |
| 2026-05-05 15:26 | 38.19622 | -79.94736 | 35646 ft | 449 kts | 58° |
| 2026-05-05 15:27 | 38.20887 | -79.91148 | 35313 ft | 444 kts | 58° |
| 2026-05-05 15:27 | 38.22149 | -79.87567 | 34956 ft | 441 kts | 58° |
| 2026-05-05 15:27 | 38.23403 | -79.84003 | 34560 ft | 439 kts | 58° |
| 2026-05-05 15:27 | 38.24644 | -79.80474 | 34175 ft | 435 kts | 58° |
| 2026-05-05 15:28 | 38.25873 | -79.76975 | 33774 ft | 431 kts | 58° |
| 2026-05-05 15:28 | 38.27075 | -79.73544 | 33393 ft | 429 kts | 59° |
| 2026-05-05 15:28 | 38.28291 | -79.70056 | 33030 ft | 431 kts | 59° |
| 2026-05-05 15:28 | 38.29493 | -79.66569 | 32626 ft | 428 kts | 60° |
| 2026-05-05 15:29 | 38.30677 | -79.63119 | 32274 ft | 424 kts | 60° |
| 2026-05-05 15:29 | 38.31852 | -79.59691 | 31905 ft | 421 kts | 60° |
| 2026-05-05 15:29 | 38.33016 | -79.56294 | 31535 ft | 417 kts | 61° |
| 2026-05-05 15:29 | 38.34177 | -79.52906 | 31189 ft | 414 kts | 61° |
| 2026-05-05 15:30 | 38.35313 | -79.49593 | 30839 ft | 411 kts | 62° |
| 2026-05-05 15:30 | 38.36452 | -79.46267 | 30499 ft | 409 kts | 62° |
| 2026-05-05 15:30 | 38.37594 | -79.42931 | 30164 ft | 411 kts | 63° |
| 2026-05-05 15:30 | 38.38732 | -79.39600 | 29765 ft | 411 kts | 62° |
| 2026-05-05 15:31 | 38.39871 | -79.36262 | 29371 ft | 408 kts | 63° |
| 2026-05-05 15:31 | 38.41000 | -79.32945 | 29017 ft | 404 kts | 63° |
| 2026-05-05 15:31 | 38.41900 | -79.30293 | 28706 ft | 402 kts | 64° |
| 2026-05-05 15:31 | 38.42815 | -79.26881 | 28316 ft | 402 kts | 74° |
| 2026-05-05 15:32 | 38.43420 | -79.23456 | 27985 ft | 400 kts | 76° |
| 2026-05-05 15:32 | 38.43988 | -79.19983 | 27582 ft | 399 kts | 76° |
| 2026-05-05 15:32 | 38.44554 | -79.16544 | 27253 ft | 395 kts | 76° |
| 2026-05-05 15:32 | 38.45134 | -79.13128 | 26896 ft | 394 kts | 75° |
| 2026-05-05 15:33 | 38.45727 | -79.09721 | 26540 ft | 393 kts | 75° |
| 2026-05-05 15:33 | 38.46313 | -79.06377 | 26186 ft | 391 kts | 75° |
| 2026-05-05 15:33 | 38.46903 | -79.03006 | 25845 ft | 389 kts | 75° |
| 2026-05-05 15:33 | 38.47491 | -78.99646 | 25495 ft | 387 kts | 75° |
| 2026-05-05 15:34 | 38.48074 | -78.96295 | 25149 ft | 385 kts | 75° |
| 2026-05-05 15:34 | 38.48653 | -78.92969 | 24802 ft | 383 kts | 75° |
| 2026-05-05 15:34 | 38.49228 | -78.89653 | 24456 ft | 382 kts | 75° |
| 2026-05-05 15:34 | 38.49801 | -78.86349 | 24110 ft | 380 kts | 76° |
| 2026-05-05 15:35 | 38.50356 | -78.83058 | 23770 ft | 378 kts | 76° |
| 2026-05-05 15:35 | 38.50877 | -78.79769 | 23406 ft | 377 kts | 77° |
| 2026-05-05 15:35 | 38.51384 | -78.76497 | 23020 ft | 375 kts | 77° |
| 2026-05-05 15:35 | 38.51811 | -78.73751 | 22704 ft | 373 kts | 77° |
| 2026-05-05 15:36 | 38.52319 | -78.70505 | 22346 ft | 370 kts | 77° |
| 2026-05-05 15:36 | 38.52817 | -78.67329 | 22001 ft | 368 kts | 77° |
| 2026-05-05 15:36 | 38.53320 | -78.64131 | 21674 ft | 365 kts | 77° |
| 2026-05-05 15:36 | 38.53823 | -78.60974 | 21376 ft | 362 kts | 77° |
| 2026-05-05 15:37 | 38.54327 | -78.57825 | 21037 ft | 360 kts | 77° |
| 2026-05-05 15:37 | 38.54827 | -78.54693 | 20723 ft | 360 kts | 77° |
| 2026-05-05 15:37 | 38.55330 | -78.51541 | 20397 ft | 362 kts | 77° |
| 2026-05-05 15:37 | 38.55832 | -78.48382 | 20068 ft | 362 kts | 77° |
| 2026-05-05 15:38 | 38.56326 | -78.45266 | 19737 ft | 361 kts | 77° |
| 2026-05-05 15:38 | 38.56822 | -78.42125 | 19419 ft | 360 kts | 77° |
| 2026-05-05 15:38 | 38.57318 | -78.38998 | 19072 ft | 359 kts | 77° |
| 2026-05-05 15:38 | 38.57851 | -78.35883 | 18748 ft | 358 kts | 76° |
| 2026-05-05 15:39 | 38.58400 | -78.32778 | 18423 ft | 357 kts | 76° |
| 2026-05-05 15:39 | 38.58943 | -78.29691 | 18081 ft | 355 kts | 76° |
| 2026-05-05 15:39 | 38.59481 | -78.26603 | 17709 ft | 354 kts | 77° |
| 2026-05-05 15:39 | 38.60083 | -78.23552 | 17353 ft | 352 kts | 70° |
| 2026-05-05 15:40 | 38.60974 | -78.20646 | 17036 ft | 349 kts | 65° |
| 2026-05-05 15:40 | 38.61954 | -78.17811 | 16706 ft | 347 kts | 65° |
| 2026-05-05 15:40 | 38.62908 | -78.15016 | 16394 ft | 346 kts | 66° |
| 2026-05-05 15:40 | 38.63841 | -78.12190 | 16076 ft | 344 kts | 66° |
| 2026-05-05 15:41 | 38.64756 | -78.09371 | 15765 ft | 342 kts | 67° |
| 2026-05-05 15:41 | 38.65657 | -78.06572 | 15477 ft | 340 kts | 67° |
| 2026-05-05 15:41 | 38.66558 | -78.03767 | 15165 ft | 339 kts | 68° |
| 2026-05-05 15:41 | 38.67453 | -78.00978 | 14832 ft | 339 kts | 68° |
| 2026-05-05 15:42 | 38.68350 | -77.98180 | 14527 ft | 341 kts | 68° |
| 2026-05-05 15:42 | 38.69251 | -77.95369 | 14206 ft | 341 kts | 68° |
| 2026-05-05 15:42 | 38.70151 | -77.92559 | 13896 ft | 340 kts | 68° |
| 2026-05-05 15:42 | 38.71050 | -77.89752 | 13567 ft | 339 kts | 69° |
| 2026-05-05 15:43 | 38.71940 | -77.86967 | 13244 ft | 338 kts | 69° |
| 2026-05-05 15:43 | 38.72819 | -77.84218 | 12904 ft | 337 kts | 68° |
| 2026-05-05 15:43 | 38.73955 | -77.81609 | 12550 ft | 336 kts | 49° |
| 2026-05-05 15:43 | 38.75518 | -77.79405 | 12296 ft | 332 kts | 45° |
| 2026-05-05 15:44 | 38.77085 | -77.77233 | 11982 ft | 332 kts | 46° |
| 2026-05-05 15:44 | 38.78637 | -77.75043 | 11666 ft | 331 kts | 47° |
| 2026-05-05 15:44 | 38.80171 | -77.72845 | 11372 ft | 330 kts | 47° |
| 2026-05-05 15:44 | 38.81698 | -77.70643 | 11060 ft | 329 kts | 47° |
| 2026-05-05 15:45 | 38.83208 | -77.68431 | 10724 ft | 331 kts | 49° |
| 2026-05-05 15:45 | 38.84708 | -77.66176 | 10369 ft | 333 kts | 49° |
| 2026-05-05 15:45 | 38.86212 | -77.63903 | 9996 ft | 334 kts | 49° |
| 2026-05-05 15:45 | 38.87696 | -77.61660 | 9858 ft | 323 kts | 49° |
| 2026-05-05 15:46 | 38.89147 | -77.59468 | 9264 ft | 326 kts | 49° |
| 2026-05-05 15:46 | 38.90602 | -77.57275 | 8885 ft | 319 kts | 49° |
| 2026-05-05 15:46 | 38.92030 | -77.55122 | 8531 ft | 314 kts | 49° |
| 2026-05-05 15:46 | 38.93431 | -77.53010 | 8176 ft | 309 kts | 49° |
| 2026-05-05 15:47 | 38.94702 | -77.50786 | 7820 ft | 307 kts | 64° |
| 2026-05-05 15:47 | 38.95279 | -77.49142 | 7611 ft | 303 kts | 70° |
| 2026-05-05 15:47 | 38.96332 | -77.45807 | 7174 ft | 300 kts | 70° |
| 2026-05-05 15:47 | 38.97125 | -77.43325 | 6846 ft | 299 kts | 69° |
| 2026-05-05 15:48 | 38.97929 | -77.40863 | 6513 ft | 297 kts | 69° |
| 2026-05-05 15:48 | 38.98727 | -77.38452 | 6168 ft | 295 kts | 69° |
| 2026-05-05 15:48 | 38.99531 | -77.36034 | 5838 ft | 292 kts | 68° |
| 2026-05-05 15:48 | 39.00317 | -77.33673 | 5504 ft | 289 kts | 68° |
| 2026-05-05 15:49 | 39.01105 | -77.31319 | 5167 ft | 287 kts | 67° |
| 2026-05-05 15:49 | 39.01895 | -77.28969 | 4833 ft | 285 kts | 67° |
| 2026-05-05 15:49 | 39.02633 | -77.26611 | 4497 ft | 282 kts | 76° |
| 2026-05-05 15:49 | 39.02656 | -77.24150 | 4259 ft | 270 kts | 109° |
| 2026-05-05 15:50 | 39.01893 | -77.22054 | 3959 ft | 255 kts | 131° |
| 2026-05-05 15:50 | 39.00709 | -77.20467 | 3668 ft | 239 kts | 140° |
| 2026-05-05 15:50 | 38.99522 | -77.19036 | 3374 ft | 228 kts | 141° |
| 2026-05-05 15:50 | 38.98412 | -77.17706 | 3094 ft | 211 kts | 141° |
| 2026-05-05 15:51 | 38.97449 | -77.16504 | 2861 ft | 194 kts | 140° |
| 2026-05-05 15:51 | 38.96511 | -77.15325 | 2734 ft | 187 kts | 142° |
| 2026-05-05 15:51 | 38.95549 | -77.14173 | 2512 ft | 188 kts | 143° |
| 2026-05-05 15:51 | 38.94579 | -77.13071 | 2253 ft | 182 kts | 145° |
| 2026-05-05 15:52 | 38.93643 | -77.12074 | 2046 ft | 168 kts | 147° |
| 2026-05-05 15:52 | 38.92730 | -77.11195 | 1869 ft | 165 kts | 150° |
| 2026-05-05 15:52 | 38.91827 | -77.10405 | 1647 ft | 159 kts | 151° |
| 2026-05-05 15:52 | 38.90968 | -77.09535 | 1414 ft | 156 kts | 140° |
| 2026-05-05 15:53 | 38.90371 | -77.08395 | 1204 ft | 156 kts | 117° |
| 2026-05-05 15:53 | 38.90127 | -77.07026 | 893 ft | 160 kts | 107° |
| 2026-05-05 15:53 | 38.89702 | -77.05816 | 680 ft | 139 kts | 144° |
| 2026-05-05 15:53 | 38.88903 | -77.05192 | 528 ft | 137 kts | 158° |
| 2026-05-05 15:54 | 38.88038 | -77.04666 | 404 ft | 134 kts | 155° |
| 2026-05-05 15:54 | 38.87225 | -77.04092 | 255 ft | 132 kts | 162° |
| 2026-05-05 15:54 | 38.86323 | -77.03900 | 107 ft | 135 kts | 175° |
| 2026-05-05 15:54 | 38.85404 | -77.03803 | 24 ft | 123 kts | 174° |
| 2026-05-05 15:55 | 38.84783 | -77.03739 | 24 ft | 61 kts | 175° |
| 2026-05-05 15:55 | 38.84511 | -77.03711 | 25 ft | 29 kts | 175° |
| 2026-05-05 15:55 | 38.84405 | -77.03741 | 24 ft | 13 kts | 230° |
| 2026-05-05 15:55 | 38.84399 | -77.03821 | 24 ft | 10 kts | 300° |
| 2026-05-05 15:56 | 38.84456 | -77.03846 | 25 ft | 9 kts | 355° |
| 2026-05-05 15:56 | 38.84525 | -77.03854 | 24 ft | 11 kts | 355° |
| 2026-05-05 15:56 | 38.84584 | -77.03860 | 23 ft | 14 kts | 355° |
| 2026-05-05 15:56 | 38.84717 | -77.03873 | 25 ft | 18 kts | 355° |
| 2026-05-05 15:57 | 38.84808 | -77.03882 | 25 ft | 21 kts | 355° |
| 2026-05-05 15:57 | 38.84940 | -77.03895 | 24 ft | 23 kts | 355° |
| 2026-05-05 15:57 | 38.85095 | -77.03911 | 24 ft | 26 kts | 355° |
| 2026-05-05 15:57 | 38.85239 | -77.03925 | 23 ft | 18 kts | 356° |
| 2026-05-05 15:58 | 38.85296 | -77.03931 | 23 ft | 8 kts | 355° |
| 2026-05-05 15:58 | 38.85338 | -77.03957 | 23 ft | 5 kts | 294° |
| 2026-05-05 15:58 | 38.85359 | -77.03995 | 25 ft | 5 kts | 338° |
| 2026-05-05 15:58 | 38.85398 | -77.04001 | 24 ft | 6 kts | 355° |
| 2026-05-05 15:59 | 38.85448 | -77.04006 | 23 ft | 9 kts | 355° |
| 2026-05-05 15:59 | 38.85511 | -77.04018 | 23 ft | 7 kts | 340° |
| 2026-05-05 15:59 | 38.85526 | -77.04057 | 24 ft | 4 kts | 251° |
| 2026-05-05 15:59 | 38.85508 | -77.04080 | 25 ft | 3 kts | 220° |
| 2026-05-05 16:00 | 38.85492 | -77.04096 | 25 ft | 3 kts | 218° |
| 2026-05-05 16:00 | 38.85486 | -77.04102 | 24 ft | 0 kts | 218° |